Time;durP1;ratioP1;P1;durP2;ratioP2;P2;SDS_P1;SDS_P2;PMS_P1;PMS_P2;Temp;Humidity;BMP_temperature;BMP_pressure;BME280_temperature;BME280_humidity;BME280_pressure;Samples;Min_cycle;Max_cycle;Signal;HPM_P1;HPM_P2
2021/10/18 00:01:48;;;;;;;22.67;10.88;;;;;;;9.56;73.42;101980.03;5031631;28;20351;-67
2021/10/18 00:04:14;;;;;;;23.25;11.38;;;;;;;9.49;74.18;101978.81;5013583;28;20044;-67
2021/10/18 00:06:41;;;;;;;21.00;11.32;;;;;;;9.50;73.54;101976.06;5031509;28;20057;-67
2021/10/18 00:09:08;;;;;;;24.63;10.85;;;;;;;9.46;73.73;101985.22;5023380;28;20045;-67
2021/10/18 00:11:36;;;;;;;19.33;9.88;;;;;;;9.44;74.23;101975.69;5032579;28;20037;-67
2021/10/18 00:14:05;;;;;;;26.80;10.77;;;;;;;9.41;74.05;101980.25;5032557;28;20041;-67
2021/10/18 00:16:35;;;;;;;25.65;10.77;;;;;;;9.37;74.29;101973.50;5031206;28;20043;-67
2021/10/18 00:19:03;;;;;;;22.20;10.07;;;;;;;9.29;74.37;101973.22;5031465;28;20037;-67
2021/10/18 00:21:30;;;;;;;21.10;11.15;;;;;;;9.17;75.11;101977.66;5031835;28;20034;-67
2021/10/18 00:23:56;;;;;;;21.33;10.40;;;;;;;9.11;75.15;101972.78;5031250;28;20042;-67
2021/10/18 00:26:23;;;;;;;25.13;10.60;;;;;;;9.10;75.29;101978.22;5032464;28;20050;-67
2021/10/18 00:28:50;;;;;;;18.83;10.65;;;;;;;9.05;75.46;101977.72;5032281;28;20068;-67
2021/10/18 00:31:16;;;;;;;20.55;10.50;;;;;;;9.02;75.18;101970.84;5031093;28;20087;-67
2021/10/18 00:33:43;;;;;;;20.63;11.65;;;;;;;9.02;75.39;101974.34;5032295;28;20048;-66
2021/10/18 00:36:10;;;;;;;19.45;10.70;;;;;;;8.94;75.54;101968.75;5031705;28;20087;-66
2021/10/18 00:38:37;;;;;;;21.38;10.90;;;;;;;8.92;75.67;101969.84;5030652;28;20120;-67
2021/10/18 00:41:03;;;;;;;28.27;11.55;;;;;;;8.89;75.87;101972.72;5032371;28;20049;-67
2021/10/18 00:43:30;;;;;;;23.33;11.13;;;;;;;8.81;76.07;101975.94;5030403;28;20564;-67
2021/10/18 00:45:57;;;;;;;18.67;10.68;;;;;;;8.74;75.78;101972.03;5032332;28;20045;-67
2021/10/18 00:48:24;;;;;;;21.05;10.85;;;;;;;8.75;75.80;101966.63;5032010;28;20553;-67
2021/10/18 00:50:56;;;;;;;21.10;11.35;;;;;;;8.70;75.90;101968.78;5031536;28;20045;-67
2021/10/18 00:53:25;;;;;;;21.98;11.45;;;;;;;8.72;76.17;101969.50;5032346;28;20034;-67
2021/10/18 00:55:53;;;;;;;19.73;10.60;;;;;;;8.64;76.25;101962.13;5030656;28;20038;-67
2021/10/18 00:58:22;;;;;;;19.13;10.50;;;;;;;8.63;76.29;101965.72;5031716;28;20409;-67
2021/10/18 01:00:50;;;;;;;20.35;11.13;;;;;;;8.62;76.48;101971.97;5031977;28;20053;-67
2021/10/18 01:03:19;;;;;;;24.92;11.10;;;;;;;8.55;76.65;101973.38;5031441;28;20041;-67
2021/10/18 01:05:46;;;;;;;21.83;10.52;;;;;;;8.55;76.90;101975.16;5031601;28;20095;-67
2021/10/18 01:08:14;;;;;;;20.67;10.70;;;;;;;8.52;76.53;101970.94;5028969;28;20045;-67
2021/10/18 01:10:41;;;;;;;22.20;10.85;;;;;;;8.51;76.57;101976.34;5031700;28;20045;-67
2021/10/18 01:13:08;;;;;;;20.33;10.90;;;;;;;8.47;76.89;101974.88;5030590;28;20056;-67
2021/10/18 01:15:35;;;;;;;22.95;10.45;;;;;;;8.45;77.09;101974.97;5014418;28;20040;-67
2021/10/18 01:18:02;;;;;;;25.90;10.57;;;;;;;8.33;77.11;101981.09;5031397;28;20049;-67
2021/10/18 01:20:34;;;;;;;21.20;10.43;;;;;;;8.32;77.55;101979.44;5046971;28;20061;-68
2021/10/18 01:23:02;;;;;;;19.88;10.43;;;;;;;8.32;77.62;101971.50;5032267;28;20044;-67
2021/10/18 01:25:28;;;;;;;21.85;10.13;;;;;;;8.19;77.74;101979.47;5014382;28;20506;-67
2021/10/18 01:27:56;;;;;;;20.77;10.52;;;;;;;8.25;77.44;101989.59;4997830;28;20053;-67
2021/10/18 01:30:24;;;;;;;21.95;11.00;;;;;;;8.19;77.74;101988.22;5030189;28;20465;-67
2021/10/18 01:32:51;;;;;;;19.42;10.10;;;;;;;8.18;77.61;101985.69;5030627;28;20034;-67
2021/10/18 01:35:18;;;;;;;18.25;9.85;;;;;;;8.15;77.63;101999.97;5031779;28;20050;-67
2021/10/18 01:37:45;;;;;;;19.13;10.10;;;;;;;8.13;77.99;101991.31;5029697;28;20120;-67
2021/10/18 01:40:14;;;;;;;20.73;10.07;;;;;;;8.14;77.81;101994.78;5030271;28;20096;-67
2021/10/18 01:42:42;;;;;;;23.63;10.93;;;;;;;8.13;78.24;102001.00;5034405;28;20045;-67
2021/10/18 01:45:12;;;;;;;20.50;10.50;;;;;;;8.13;78.21;102001.00;5051412;28;20048;-67
2021/10/18 01:47:39;;;;;;;17.55;10.07;;;;;;;8.13;78.28;101998.38;5051415;28;20044;-67
2021/10/18 01:50:11;;;;;;;19.90;10.70;;;;;;;8.13;78.27;102007.16;5051256;28;20037;-67
2021/10/18 01:52:38;;;;;;;20.70;11.25;;;;;;;8.13;77.92;102006.31;5051512;28;20356;-67
2021/10/18 01:55:06;;;;;;;20.38;10.27;;;;;;;8.16;78.10;102006.94;5050508;28;20041;-67
2021/10/18 01:57:33;;;;;;;26.23;10.98;;;;;;;8.09;78.10;102003.03;5033228;28;20080;-67
2021/10/18 02:00:00;;;;;;;20.20;10.30;;;;;;;7.98;78.49;102006.41;5033257;28;20056;-67
2021/10/18 02:02:28;;;;;;;20.35;10.05;;;;;;;7.99;78.88;102002.00;5051117;28;20045;-67
2021/10/18 02:04:54;;;;;;;18.48;10.13;;;;;;;7.95;78.84;101998.72;5032052;28;20037;-67
2021/10/18 02:07:21;;;;;;;20.38;10.68;;;;;;;7.89;78.84;101993.84;5033447;28;20430;-67
2021/10/18 02:09:48;;;;;;;19.45;11.10;;;;;;;7.92;78.77;102000.72;5051340;28;20095;-67
2021/10/18 02:12:15;;;;;;;27.10;10.82;;;;;;;7.92;79.01;101995.44;5051154;28;20041;-67
2021/10/18 02:14:42;;;;;;;19.63;9.90;;;;;;;7.94;78.68;101994.38;5033332;28;20405;-67
2021/10/18 02:17:08;;;;;;;21.48;10.50;;;;;;;7.90;78.42;101995.53;5043580;28;20489;-67
2021/10/18 02:19:35;;;;;;;20.02;10.65;;;;;;;7.81;78.57;101994.38;5025228;28;20044;-67
2021/10/18 02:22:02;;;;;;;20.38;10.77;;;;;;;7.77;78.71;101989.44;5036640;28;20041;-67
2021/10/18 02:24:29;;;;;;;18.77;10.48;;;;;;;7.82;79.13;101989.94;5036815;28;20037;-67
2021/10/18 02:26:56;;;;;;;18.08;10.65;;;;;;;7.79;78.78;101987.53;5054897;28;20048;-67
2021/10/18 02:29:22;;;;;;;23.83;10.23;;;;;;;7.81;78.73;101989.09;5054927;28;20091;-67
2021/10/18 02:31:49;;;;;;;28.77;10.63;;;;;;;7.78;79.26;101994.56;5054580;28;20041;-67
2021/10/18 02:34:15;;;;;;;20.08;10.45;;;;;;;7.82;78.61;101988.16;5053261;28;20041;-67
2021/10/18 02:36:42;;;;;;;22.60;11.07;;;;;;;7.78;78.15;101993.75;5036966;28;20068;-67
2021/10/18 02:39:09;;;;;;;21.92;10.70;;;;;;;7.78;78.83;101989.28;5054495;28;20451;-67
2021/10/18 02:41:36;;;;;;;28.08;11.05;;;;;;;7.73;79.03;101983.50;5037141;28;20032;-68
2021/10/18 02:44:03;;;;;;;22.73;10.65;;;;;;;7.81;78.15;101988.25;5054371;28;20073;-67
2021/10/18 02:46:31;;;;;;;22.67;10.52;;;;;;;7.75;78.63;101978.09;5054606;28;20080;-67
2021/10/18 02:48:58;;;;;;;18.80;10.13;;;;;;;7.66;78.78;101975.16;5052848;28;20041;-67
2021/10/18 02:51:25;;;;;;;23.35;10.98;;;;;;;7.66;78.94;101977.78;5035038;28;20050;-67
2021/10/18 02:53:51;;;;;;;21.30;10.25;;;;;;;7.69;78.92;101971.44;5049459;28;20516;-67
2021/10/18 02:56:18;;;;;;;21.48;11.07;;;;;;;7.66;78.72;101972.50;5036428;28;20033;-67
2021/10/18 02:58:45;;;;;;;18.42;10.48;;;;;;;7.62;78.36;101967.53;5054055;28;20037;-67
2021/10/18 03:01:12;;;;;;;21.20;11.07;;;;;;;7.64;79.17;101968.25;5053915;28;20040;-67
2021/10/18 03:03:38;;;;;;;22.67;10.98;;;;;;;7.66;78.68;101966.38;5052248;28;20509;-67
2021/10/18 03:06:05;;;;;;;19.60;10.50;;;;;;;7.64;79.04;101974.41;5035423;28;20440;-67
2021/10/18 03:08:32;;;;;;;19.40;10.73;;;;;;;7.71;78.04;101974.81;5036163;28;20045;-67
2021/10/18 03:10:59;;;;;;;21.13;11.02;;;;;;;7.67;78.56;101978.63;5053760;28;20037;-67
2021/10/18 03:13:26;;;;;;;22.92;11.00;;;;;;;7.63;79.13;101982.44;5053759;28;20037;-67
2021/10/18 03:15:53;;;;;;;22.77;10.57;;;;;;;7.60;78.83;101980.00;5036023;28;20448;-67
2021/10/18 03:18:19;;;;;;;22.30;11.88;;;;;;;7.53;78.97;101976.94;5053634;28;20397;-67
2021/10/18 03:20:46;;;;;;;19.50;10.32;;;;;;;7.54;78.99;101973.34;5036087;28;20478;-67
2021/10/18 03:23:13;;;;;;;20.08;11.00;;;;;;;7.50;78.70;101962.13;5053682;28;20037;-67
2021/10/18 03:25:40;;;;;;;20.20;10.60;;;;;;;7.53;78.77;101973.44;5035957;28;20041;-67
2021/10/18 03:28:07;;;;;;;19.20;10.05;;;;;;;7.50;78.57;101974.50;5053912;28;20071;-67
2021/10/18 03:30:34;;;;;;;22.20;10.18;;;;;;;7.48;78.81;101976.41;5051774;28;20049;-67
2021/10/18 03:33:01;;;;;;;19.92;10.95;;;;;;;7.42;78.80;101969.75;5054277;28;20041;-67
2021/10/18 03:35:27;;;;;;;19.85;10.85;;;;;;;7.43;79.30;101971.41;5053430;28;20041;-67
2021/10/18 03:37:54;;;;;;;22.67;10.35;;;;;;;7.43;78.68;101974.06;5053320;28;20048;-67
2021/10/18 03:40:24;;;;;;;22.95;11.70;;;;;;;7.43;78.63;101981.13;5053546;28;20111;-67
2021/10/18 03:42:51;;;;;;;20.63;10.55;;;;;;;7.40;79.05;101978.69;5019330;28;20048;-67
2021/10/18 03:45:17;;;;;;;20.20;10.98;;;;;;;7.43;79.26;101979.34;5036000;28;20041;-67
2021/10/18 03:47:45;;;;;;;22.45;11.30;;;;;;;7.40;79.26;101981.34;5052917;28;20067;-67
2021/10/18 03:50:12;;;;;;;20.10;10.48;;;;;;;7.41;79.29;101983.03;5046405;28;20045;-67
2021/10/18 03:52:39;;;;;;;19.70;10.00;;;;;;;7.38;79.69;101985.88;5046821;28;20037;-67
2021/10/18 03:55:05;;;;;;;17.88;10.07;;;;;;;7.34;79.29;101989.69;5035092;28;20040;-67
2021/10/18 03:57:32;;;;;;;20.10;10.93;;;;;;;7.37;79.04;101990.31;5035441;28;20094;-67
2021/10/18 03:59:59;;;;;;;20.13;10.32;;;;;;;7.35;79.19;101984.31;5035093;28;20478;-67
2021/10/18 04:02:26;;;;;;;19.13;10.05;;;;;;;7.31;79.37;101982.78;5052311;28;20397;-68
2021/10/18 04:04:53;;;;;;;20.48;10.75;;;;;;;7.33;79.66;101980.94;5033754;28;20079;-67
2021/10/18 04:07:20;;;;;;;22.15;10.75;;;;;;;7.37;78.96;101981.53;5052495;28;20049;-67
2021/10/18 04:09:48;;;;;;;21.42;10.88;;;;;;;7.40;78.76;101989.25;5052708;28;20037;-67
2021/10/18 04:12:15;;;;;;;23.23;10.98;;;;;;;7.38;79.47;101989.34;5052517;28;20037;-67
2021/10/18 04:14:41;;;;;;;20.27;10.23;;;;;;;7.34;79.06;101995.78;5015157;28;20037;-67
2021/10/18 04:17:08;;;;;;;20.77;10.00;;;;;;;7.28;79.28;101994.41;5045393;28;20056;-67
2021/10/18 04:19:35;;;;;;;21.20;9.93;;;;;;;7.36;79.23;102004.47;5034635;28;20511;-67
2021/10/18 04:22:02;;;;;;;30.10;10.85;;;;;;;7.40;78.94;101999.81;5052058;28;20048;-67
2021/10/18 04:24:29;;;;;;;20.98;10.88;;;;;;;7.39;78.71;102006.91;5052028;28;20405;-68
2021/10/18 04:26:57;;;;;;;23.90;10.50;;;;;;;7.39;79.15;101998.97;5034662;28;20095;-68
2021/10/18 04:29:23;;;;;;;24.45;10.88;;;;;;;7.40;79.13;102005.09;5051959;28;20133;-68
2021/10/18 04:31:56;;;;;;;19.48;10.25;;;;;;;7.35;79.07;102004.56;5050236;28;20052;-68
2021/10/18 04:34:23;;;;;;;23.15;11.27;;;;;;;7.32;78.76;102007.41;5052339;28;20389;-68
2021/10/18 04:36:50;;;;;;;21.05;10.65;;;;;;;7.28;79.45;102004.97;5034311;28;20053;-68
2021/10/18 04:39:17;;;;;;;21.55;10.07;;;;;;;7.19;78.90;102000.31;5034276;28;20055;-68
2021/10/18 04:41:45;;;;;;;20.38;10.75;;;;;;;7.26;79.54;102006.03;5018213;28;20070;-68
2021/10/18 04:44:12;;;;;;;24.65;10.88;;;;;;;7.24;79.68;102011.41;5051658;28;20068;-68
2021/10/18 04:46:42;;;;;;;23.73;10.35;;;;;;;7.25;79.63;102006.97;5051868;28;20087;-68
2021/10/18 04:49:09;;;;;;;23.05;11.07;;;;;;;7.26;79.77;102001.59;5018240;28;20080;-68
2021/10/18 04:51:35;;;;;;;24.75;11.13;;;;;;;7.20;79.59;102004.63;5051777;28;20044;-67
2021/10/18 04:54:02;;;;;;;20.70;9.93;;;;;;;7.15;79.24;102003.22;5033928;28;20561;-67
2021/10/18 04:56:29;;;;;;;20.52;11.18;;;;;;;7.23;79.54;102011.50;5017893;28;20036;-68
2021/10/18 04:58:56;;;;;;;19.70;10.80;;;;;;;7.25;79.73;102007.81;5051498;28;20073;-68
2021/10/18 05:01:22;;;;;;;24.48;11.07;;;;;;;7.27;79.10;102013.00;5033837;28;20044;-68
2021/10/18 05:03:49;;;;;;;23.88;11.15;;;;;;;7.33;79.29;102017.00;5050180;28;20045;-68
2021/10/18 05:06:16;;;;;;;22.13;11.38;;;;;;;7.30;79.00;102011.00;5033969;28;20045;-67
2021/10/18 05:08:43;;;;;;;21.70;11.07;;;;;;;7.28;79.53;102018.16;5034004;28;20132;-68
2021/10/18 05:11:10;;;;;;;24.67;10.70;;;;;;;7.30;79.32;102015.44;5033723;28;20037;-68
2021/10/18 05:13:36;;;;;;;19.85;10.43;;;;;;;7.23;79.66;102014.16;5034085;28;20047;-68
2021/10/18 05:16:03;;;;;;;24.25;10.73;;;;;;;7.27;79.79;102015.63;5033550;28;20512;-68
2021/10/18 05:18:30;;;;;;;22.77;11.95;;;;;;;7.28;79.46;102014.69;5034184;28;20041;-67
2021/10/18 05:20:57;;;;;;;24.90;11.40;;;;;;;7.23;79.64;102014.97;5034176;28;20124;-67
2021/10/18 05:23:25;;;;;;;24.52;10.52;;;;;;;7.16;79.44;102016.34;5051503;28;20037;-67
2021/10/18 05:25:51;;;;;;;22.02;11.02;;;;;;;7.19;79.82;102010.88;5033581;28;20532;-67
2021/10/18 05:28:18;;;;;;;23.92;11.43;;;;;;;7.14;79.59;102017.41;5034052;28;20049;-67
2021/10/18 05:30:45;;;;;;;22.35;10.85;;;;;;;7.16;79.77;102011.06;5033693;28;20041;-67
2021/10/18 05:33:12;;;;;;;21.70;11.27;;;;;;;7.19;79.43;102018.78;5032051;28;20520;-67
2021/10/18 05:35:38;;;;;;;26.85;10.73;;;;;;;7.13;79.62;102016.56;5051610;28;20049;-67
2021/10/18 05:38:05;;;;;;;21.67;10.65;;;;;;;7.08;79.96;102029.19;5050958;28;20049;-67
2021/10/18 05:40:32;;;;;;;24.02;11.63;;;;;;;7.08;80.16;102035.31;5051380;28;20055;-69
2021/10/18 05:42:59;;;;;;;29.13;12.13;;;;;;;7.16;79.73;102031.31;5017117;28;20053;-67
2021/10/18 05:45:26;;;;;;;20.63;10.85;;;;;;;7.11;79.42;102031.63;5050305;28;20552;-67
2021/10/18 05:48:02;;;;;;;21.75;11.48;;;;;;;7.15;79.66;102022.56;5050107;28;20041;-67
2021/10/18 05:50:33;;;;;;;21.65;11.15;;;;;;;7.11;79.93;102019.28;5051346;28;20489;-67
2021/10/18 05:53:00;;;;;;;26.23;11.35;;;;;;;7.14;79.55;102023.50;5037278;28;20045;-67
2021/10/18 05:55:27;;;;;;;20.95;11.57;;;;;;;7.09;80.09;102026.47;5055474;28;20124;-67
2021/10/18 05:57:57;;;;;;;21.52;11.50;;;;;;;7.15;79.34;102027.84;5036915;28;20040;-67
2021/10/18 06:00:25;;;;;;;25.77;12.25;;;;;;;7.13;79.44;102026.25;5036741;28;20401;-67
2021/10/18 06:02:52;;;;;;;26.95;12.32;;;;;;;7.20;79.53;102032.81;5055541;28;20052;-67
2021/10/18 06:05:20;;;;;;;25.45;12.35;;;;;;;7.17;79.50;102023.31;5052900;28;20048;-67
2021/10/18 06:07:47;;;;;;;23.67;12.68;;;;;;;7.16;80.20;102018.97;5054649;28;20037;-68
2021/10/18 06:10:15;;;;;;;34.88;12.25;;;;;;;7.18;79.73;102017.06;5037062;28;20049;-68
2021/10/18 06:12:42;;;;;;;24.25;12.23;;;;;;;7.13;80.13;102021.84;5053458;28;20033;-68
2021/10/18 06:15:10;;;;;;;26.15;11.52;;;;;;;7.23;79.33;102020.25;5053617;28;20041;-68
2021/10/18 06:17:38;;;;;;;26.23;11.23;;;;;;;7.16;79.41;102016.34;5053410;28;20037;-68
2021/10/18 06:20:05;;;;;;;24.38;13.27;;;;;;;7.22;79.22;102023.88;5036965;28;20060;-68
2021/10/18 06:22:32;;;;;;;26.55;12.60;;;;;;;7.22;79.47;102017.72;5054871;28;20048;-68
2021/10/18 06:24:59;;;;;;;27.73;12.55;;;;;;;7.23;79.26;102014.97;5054963;28;20044;-68
2021/10/18 06:27:26;;;;;;;30.10;12.55;;;;;;;7.25;79.34;102017.53;5054491;28;20037;-68
2021/10/18 06:29:53;;;;;;;25.70;12.50;;;;;;;7.29;78.55;102017.25;5038188;28;20049;-68
2021/10/18 06:32:19;;;;;;;27.38;12.13;;;;;;;7.35;78.44;102023.91;5034601;28;20057;-68
2021/10/18 06:34:46;;;;;;;23.13;11.75;;;;;;;7.30;79.24;102016.28;5054132;28;20037;-68
2021/10/18 06:37:13;;;;;;;23.50;12.85;;;;;;;7.43;78.40;102018.94;5016151;28;20041;-67
2021/10/18 06:39:40;;;;;;;24.48;12.60;;;;;;;7.41;78.65;102033.19;5016768;28;20037;-68
2021/10/18 06:42:07;;;;;;;21.52;12.55;;;;;;;7.43;78.44;102033.94;5053109;28;20409;-68
2021/10/18 06:44:33;;;;;;;23.65;12.00;;;;;;;7.40;78.86;102032.34;5033063;28;20053;-68
2021/10/18 06:47:00;;;;;;;25.17;12.30;;;;;;;7.49;78.53;102037.03;5032789;28;20064;-67
2021/10/18 06:49:27;;;;;;;22.50;11.45;;;;;;;7.52;77.61;102027.22;5019381;28;20116;-68
2021/10/18 06:51:56;;;;;;;22.48;11.40;;;;;;;7.61;77.86;102042.44;5032646;28;20099;-67
2021/10/18 06:54:23;;;;;;;28.52;12.25;;;;;;;7.54;78.45;102043.78;5034175;28;20050;-68
2021/10/18 06:56:52;;;;;;;21.90;11.77;;;;;;;7.62;78.07;102044.13;5033817;28;20706;-68
2021/10/18 06:59:19;;;;;;;19.48;11.73;;;;;;;7.67;77.54;102050.78;5032857;28;20048;-68
2021/10/18 07:01:45;;;;;;;26.35;12.40;;;;;;;7.71;77.84;102048.78;5031396;28;20045;-68
2021/10/18 07:04:16;;;;;;;21.65;11.52;;;;;;;7.78;77.65;102059.78;5031258;28;20052;-68
2021/10/18 07:06:43;;;;;;;21.38;11.07;;;;;;;7.83;77.65;102057.69;5000461;28;20493;-67
2021/10/18 07:09:10;;;;;;;26.65;11.40;;;;;;;7.81;77.52;102054.31;5049489;28;20042;-68
2021/10/18 07:11:36;;;;;;;24.63;12.45;;;;;;;7.78;78.37;102059.78;5033363;28;20067;-68
2021/10/18 07:14:03;;;;;;;25.75;13.13;;;;;;;7.85;78.31;102050.50;5032182;28;20041;-68
2021/10/18 07:16:30;;;;;;;23.50;11.98;;;;;;;7.94;78.14;102052.50;5032528;28;20060;-68
2021/10/18 07:18:57;;;;;;;34.75;11.65;;;;;;;8.10;77.38;102052.31;5014814;28;20042;-68
2021/10/18 07:21:24;;;;;;;24.05;12.10;;;;;;;8.19;76.78;102045.53;5033121;28;20042;-68
2021/10/18 07:23:52;;;;;;;22.95;11.82;;;;;;;8.28;76.95;102052.84;5015614;28;20041;-67
2021/10/18 07:26:19;;;;;;;22.27;12.32;;;;;;;8.34;77.03;102049.75;5033493;28;20045;-67
2021/10/18 07:28:46;;;;;;;25.60;12.25;;;;;;;8.27;76.47;102041.38;4999089;28;20048;-67
2021/10/18 07:31:13;;;;;;;26.45;12.90;;;;;;;8.50;76.12;102040.78;5030683;28;20604;-68
2021/10/18 07:33:40;;;;;;;24.65;12.13;;;;;;;8.49;76.09;102047.00;5033598;28;20041;-67
2021/10/18 07:36:09;;;;;;;23.63;12.30;;;;;;;8.55;76.36;102044.78;5033410;28;20129;-68
2021/10/18 07:38:37;;;;;;;27.27;13.07;;;;;;;8.72;75.71;102040.94;5024976;28;20054;-71
2021/10/18 07:41:06;;;;;;;23.95;12.25;;;;;;;8.87;75.61;102052.19;5029918;28;20037;-70
2021/10/18 07:43:33;;;;;;;27.70;12.85;;;;;;;8.87;75.32;102043.44;5036621;28;20048;-70
2021/10/18 07:46:00;;;;;;;24.50;12.57;;;;;;;8.98;75.25;102039.03;5050702;28;20045;-70
2021/10/18 07:48:27;;;;;;;22.80;12.75;;;;;;;8.89;74.95;102041.50;5050813;28;20048;-70
2021/10/18 07:50:55;;;;;;;25.60;13.52;;;;;;;9.04;74.82;102040.41;5045153;28;20473;-71
2021/10/18 07:53:22;;;;;;;28.17;14.48;;;;;;;9.12;74.54;102047.78;5032673;28;20071;-70
2021/10/18 07:55:49;;;;;;;30.33;14.15;;;;;;;9.03;74.82;102054.59;5034158;28;20045;-70
2021/10/18 07:58:21;;;;;;;25.80;13.38;;;;;;;9.10;74.39;102055.84;5032226;28;20490;-70
2021/10/18 08:00:48;;;;;;;27.15;14.13;;;;;;;9.18;73.99;102050.81;5045842;28;20040;-70
2021/10/18 08:03:15;;;;;;;27.90;14.48;;;;;;;9.19;74.73;102056.97;5026675;28;20037;-70
2021/10/18 08:05:42;;;;;;;29.75;14.18;;;;;;;9.29;74.37;102063.25;5031394;28;20508;-71
2021/10/18 08:08:10;;;;;;;32.65;14.70;;;;;;;9.27;74.14;102051.09;5049508;28;20071;-70
2021/10/18 08:10:37;;;;;;;25.77;14.23;;;;;;;9.45;74.25;102054.19;5047069;28;20041;-69
2021/10/18 08:13:04;;;;;;;26.58;15.02;;;;;;;9.55;73.64;102055.16;5014436;28;20048;-70
2021/10/18 08:15:31;;;;;;;30.38;14.35;;;;;;;9.61;74.15;102065.31;5047924;28;20048;-69
2021/10/18 08:17:59;;;;;;;27.27;14.32;;;;;;;9.67;73.13;102064.00;5030179;28;20041;-70
2021/10/18 08:20:26;;;;;;;28.02;14.43;;;;;;;9.68;73.39;102060.38;5051481;28;20056;-71
2021/10/18 08:22:53;;;;;;;27.70;14.07;;;;;;;9.74;73.60;102065.25;5048840;28;20512;-71
2021/10/18 08:25:20;;;;;;;34.78;15.25;;;;;;;9.84;73.42;102060.94;5048610;28;20389;-71
2021/10/18 08:27:47;;;;;;;28.65;14.95;;;;;;;10.01;72.51;102064.94;5041970;28;20197;-72
2021/10/18 08:30:15;;;;;;;32.80;14.68;;;;;;;10.04;73.33;102066.50;5048573;28;20041;-71
2021/10/18 08:32:42;;;;;;;32.55;15.73;;;;;;;10.14;72.94;102067.50;5046726;28;20038;-71
2021/10/18 08:35:10;;;;;;;30.58;15.10;;;;;;;10.17;72.48;102073.41;5044654;28;20047;-71
2021/10/18 08:40:31;;;;;;;26.15;15.05;;;;;;;10.42;71.85;102065.34;5004737;28;20049;-71
2021/10/18 08:43:18;;;;;;;30.52;14.90;;;;;;;10.32;72.22;102057.28;5042639;28;20145;-72
2021/10/18 08:45:46;;;;;;;31.38;15.52;;;;;;;10.31;72.52;102058.25;5031000;28;20103;-69
2021/10/18 08:48:13;;;;;;;29.38;15.43;;;;;;;10.29;72.39;102060.97;5005572;28;20103;-69
2021/10/18 08:50:40;;;;;;;35.90;15.43;;;;;;;10.36;72.92;102054.25;5024752;28;20044;-69
2021/10/18 08:53:07;;;;;;;30.70;15.50;;;;;;;10.47;72.68;102063.19;5049312;28;20051;-69
2021/10/18 08:55:36;;;;;;;32.03;16.52;;;;;;;10.49;73.12;102050.66;5047816;28;20048;-69
2021/10/18 08:58:04;;;;;;;31.08;16.15;;;;;;;10.53;72.12;102052.94;5016348;28;20381;-68
2021/10/18 09:00:51;;;;;;;30.33;16.85;;;;;;;10.73;71.97;102053.16;5047105;28;20041;-69
2021/10/18 09:03:24;;;;;;;35.70;16.38;;;;;;;10.75;71.85;102054.72;5029116;28;20524;-68
2021/10/18 09:06:11;;;;;;;30.15;16.33;;;;;;;10.80;71.85;102051.69;5041837;28;20037;-69
2021/10/18 09:08:42;;;;;;;39.92;17.00;;;;;;;10.98;71.23;102054.66;5044116;28;20057;-69
2021/10/18 09:11:19;;;;;;;34.92;17.20;;;;;;;11.04;70.75;102051.53;5048292;28;20148;-69
2021/10/18 09:16:37;;;;;;;34.78;17.38;;;;;;;11.13;71.11;102042.81;5127706;27;20407;-68
2021/10/18 09:19:09;;;;;;;36.20;16.77;;;;;;;11.28;70.65;102045.19;5110285;27;20044;-69
2021/10/18 09:21:49;;;;;;;31.52;16.73;;;;;;;11.41;70.78;102048.50;5120856;28;20047;-69
2021/10/18 09:24:39;;;;;;;32.95;17.67;;;;;;;11.47;69.24;102037.34;5111227;28;20521;-68
2021/10/18 09:27:14;;;;;;;33.25;17.35;;;;;;;11.53;69.17;102051.94;5120274;27;20063;-68
2021/10/18 09:29:45;;;;;;;35.95;17.38;;;;;;;11.47;69.79;102047.13;5115828;28;20208;-68
2021/10/18 09:32:26;;;;;;;32.67;17.17;;;;;;;11.52;69.01;102055.56;5122054;28;20508;-67
2021/10/18 09:35:14;;;;;;;35.42;18.58;;;;;;;11.66;69.40;102063.22;5122492;28;20031;-67
2021/10/18 09:37:43;;;;;;;32.83;17.73;;;;;;;11.62;68.94;102064.44;5102805;28;20040;-67
2021/10/18 09:40:30;;;;;;;36.30;19.27;;;;;;;11.93;68.08;102069.03;5110068;28;20093;-67
2021/10/18 09:43:12;;;;;;;37.45;18.40;;;;;;;11.90;68.44;102067.47;5102941;28;20045;-67
2021/10/18 09:46:15;;;;;;;31.13;17.58;;;;;;;11.88;68.34;102064.91;5119561;28;20407;-67
2021/10/18 10:52:01;;;;;;;28.30;14.18;;;;;;;14.47;59.73;102022.91;5091875;28;20709;-68
2021/10/18 10:54:30;;;;;;;30.90;14.65;;;;;;;14.47;61.00;102017.56;5102734;28;20040;-68
2021/10/18 10:57:03;;;;;;;28.15;14.45;;;;;;;14.55;58.73;102015.03;5084048;28;20043;-69
2021/10/18 10:59:33;;;;;;;27.05;14.63;;;;;;;15.57;56.83;102015.66;5094331;28;20101;-69
2021/10/18 11:04:40;;;;;;;28.10;13.93;;;;;;;17.98;49.64;102017.84;5131439;27;20405;-68
2021/10/18 11:07:19;;;;;;;25.88;14.00;;;;;;;18.73;46.92;102013.81;5134566;27;20035;-68
2021/10/18 11:09:52;;;;;;;25.45;12.63;;;;;;;20.01;44.40;101999.66;5123707;27;20043;-68
2021/10/18 11:12:41;;;;;;;28.15;12.88;;;;;;;20.08;43.48;102000.59;5132711;27;20454;-68
2021/10/18 11:15:18;;;;;;;22.63;12.35;;;;;;;19.57;44.13;101986.94;5120324;28;20055;-68
2021/10/18 11:17:48;;;;;;;24.58;12.73;;;;;;;19.84;43.42;101982.81;5141189;27;20039;-67
2021/10/18 11:20:18;;;;;;;21.33;12.23;;;;;;;19.91;43.22;101967.59;5139882;27;20445;-67
2021/10/18 11:22:49;;;;;;;22.23;12.30;;;;;;;19.24;44.99;101973.81;5137832;27;20118;-68
2021/10/18 11:25:20;;;;;;;26.70;13.57;;;;;;;19.21;45.79;101976.00;5130695;27;20142;-67
2021/10/18 11:27:52;;;;;;;24.20;12.30;;;;;;;18.64;47.14;101967.31;5122800;27;20497;-67
2021/10/18 11:30:21;;;;;;;24.85;11.82;;;;;;;18.54;47.30;101972.09;5126944;27;20046;-67
2021/10/18 11:32:58;;;;;;;22.75;11.85;;;;;;;18.92;46.25;101983.00;5137975;27;20032;-68
2021/10/18 11:35:27;;;;;;;24.30;12.23;;;;;;;19.22;45.34;101978.53;5133471;27;20067;-68
2021/10/18 11:40:35;;;;;;;27.50;12.45;;;;;;;20.23;43.42;101976.31;5095442;27;20385;-67
2021/10/18 11:43:07;;;;;;;23.85;12.38;;;;;;;20.66;42.15;101971.00;5076402;28;20051;-67
2021/10/18 11:45:35;;;;;;;;;;;;;;;21.01;41.56;101975.72;5098120;28;20127;-67
2021/10/18 11:48:05;;;;;;;20.90;12.20;;;;;;;21.36;40.05;101982.03;5085623;28;19932;-67
2021/10/18 11:50:36;;;;;;;24.55;12.88;;;;;;;20.75;41.64;101974.44;5086425;28;20037;-67
2021/10/18 11:53:20;;;;;;;25.58;12.27;;;;;;;20.90;40.90;101977.06;5094310;28;20032;-67
2021/10/18 11:55:49;;;;;;;25.05;11.88;;;;;;;20.79;41.40;101977.56;5091626;28;20556;-68
2021/10/18 11:58:23;;;;;;;24.98;12.07;;;;;;;20.38;42.76;101980.84;5100630;28;20046;-67
2021/10/18 12:01:03;;;;;;;19.88;12.07;;;;;;;20.13;42.69;101973.91;5083766;28;20058;-67
2021/10/18 12:03:32;;;;;;;20.40;11.75;;;;;;;19.88;43.74;101961.75;5103010;28;20128;-68
2021/10/18 12:06:01;;;;;;;25.02;12.70;;;;;;;19.32;45.32;101948.69;5096259;28;20110;-67
2021/10/18 12:08:31;;;;;;;23.77;12.48;;;;;;;19.76;43.89;101942.53;5088997;28;20044;-68
2021/10/18 12:11:00;;;;;;;23.45;11.90;;;;;;;20.66;42.28;101941.34;5093557;28;20032;-69
2021/10/18 12:13:30;;;;;;;25.77;12.52;;;;;;;20.86;41.18;101914.59;5086140;28;20048;-68
2021/10/18 12:18:58;;;;;;;22.08;12.13;;;;;;;21.84;39.65;101911.97;5104045;27;20394;-68
2021/10/18 12:21:30;;;;;;;25.10;12.10;;;;;;;21.82;39.91;101908.63;5087482;28;20492;-69
2021/10/18 12:24:00;;;;;;;28.17;12.80;;;;;;;22.43;38.25;101897.03;5084551;28;20115;-68
2021/10/18 12:26:33;;;;;;;27.80;13.30;;;;;;;22.51;37.56;101895.19;5100028;28;20044;-68
2021/10/18 12:29:10;;;;;;;21.92;12.18;;;;;;;22.79;37.42;101892.28;5099947;28;20067;-68
2021/10/18 12:31:39;;;;;;;24.77;11.88;;;;;;;22.43;37.79;101886.22;5077485;28;20044;-68
2021/10/18 12:37:14;;;;;;;21.25;12.30;;;;;;;21.69;38.24;101870.78;5112131;27;20409;-68
2021/10/18 12:39:58;;;;;;;24.65;12.65;;;;;;;20.96;41.29;101868.44;5116112;28;20043;-68
2021/10/18 12:45:10;;;;;;;24.60;12.50;;;;;;;20.29;42.53;101859.69;5084849;27;20863;-67